Terminal Aerodrome Forecast
Issued by NWS Portland, OR

Home | Current Version | Previous Version | Text Only | Print | Product List | Glossary On
Versions: 1 2 3 4 5 6 7 8 9 10 11 12 13 14 15 16 17 18 19 20 21 22 23 24 25 26 27 28 29 30 31 32 33 34 35 36 37 38 39 40 41 42 43 44 45 46 47 48 49
000
FTUS46 KPQR 302320
TAFTTD
TAF
KTTD 302320Z 0100/0124 23004KT P6SM VCSH SCT050 SCT100
      TEMPO 0100/0102 BKN050
     FM011200 00000KT P6SM OVC010
     FM011400 VRB03KT 5SM BR OVC007
     FM011900 VRB03KT P6SM SCT025 BKN070
     FM012200 05004KT P6SM SCT250=

USA.gov is the U.S. government's official web portal to all federal, state and local government web resources and services.